Time;durP1;ratioP1;P1;durP2;ratioP2;P2;SDS_P1;SDS_P2;PMS_P1;PMS_P2;Temp;Humidity;BMP_temperature;BMP_pressure;BME280_temperature;BME280_humidity;BME280_pressure;Samples;Min_cycle;Max_cycle;Signal;HPM_P1;HPM_P2
2023/09/05 00:00:01;;;;;;;6.90;4.70;;;21.70;1.00;;;;;;5044207;28;20439;-74
2023/09/05 00:02:26;;;;;;;5.70;4.23;;;21.70;1.00;;;;;;5048699;28;20562;-73
2023/09/05 00:04:55;;;;;;;6.30;4.23;;;21.60;1.00;;;;;;5050344;28;20674;-74
2023/09/05 00:07:21;;;;;;;6.40;4.70;;;21.70;1.00;;;;;;5049528;28;20219;-74
2023/09/05 00:09:47;;;;;;;9.27;4.90;;;21.70;1.00;;;;;;5050257;28;21016;-73
2023/09/05 00:12:12;;;;;;;6.00;4.43;;;21.80;1.00;;;;;;5049393;28;20203;-74
2023/09/05 00:14:38;;;;;;;6.83;4.40;;;21.60;1.00;;;;;;5047826;28;20182;-74
2023/09/05 00:17:03;;;;;;;8.20;4.37;;;21.60;1.00;;;;;;5065458;28;20258;-74
2023/09/05 00:19:29;;;;;;;9.57;4.27;;;23.10;1.00;;;;;;5047855;28;20180;-74
2023/09/05 00:21:55;;;;;;;5.70;4.03;;;21.60;1.00;;;;;;5048551;28;20184;-74
2023/09/05 00:24:39;;;;;;;5.87;4.47;;;21.60;1.00;;;;;;5048523;28;20227;-74
2023/09/05 00:27:13;;;;;;;6.30;4.50;;;21.80;1.00;;;;;;5049582;28;20219;-74
2023/09/05 00:29:40;;;;;;;5.77;4.43;;;21.50;1.00;;;;;;5047600;28;20995;-74
2023/09/05 00:32:06;;;;;;;8.53;4.63;;;21.50;1.00;;;;;;5048349;28;20434;-74
2023/09/05 00:34:33;;;;;;;7.67;4.03;;;21.40;1.00;;;;;;5040850;28;20510;-74
2023/09/05 00:37:00;;;;;;;5.40;4.10;;;21.50;1.00;;;;;;5049596;28;20603;-74
2023/09/05 00:39:29;;;;;;;6.63;4.53;;;21.40;1.00;;;;;;5048512;28;20471;-74
2023/09/05 00:41:56;;;;;;;5.90;4.47;;;21.40;1.00;;;;;;5048410;28;20948;-74
2023/09/05 00:44:25;;;;;;;6.30;4.43;;;21.40;1.00;;;;;;5044895;28;20459;-73
2023/09/05 00:46:54;;;;;;;6.83;4.60;;;21.40;1.00;;;;;;5058598;28;20508;-74
2023/09/05 00:49:23;;;;;;;6.83;4.60;;;21.40;1.00;;;;;;5047989;28;21177;-74
2023/09/05 00:51:52;;;;;;;5.57;4.20;;;21.30;1.00;;;;;;5047390;28;20431;-71
2023/09/05 00:54:18;;;;;;;5.47;4.10;;;;;;;;;;5048313;28;20431;-74
2023/09/05 00:56:45;;;;;;;6.17;4.57;;;21.30;1.00;;;;;;5046928;28;20429;-74
2023/09/05 00:59:11;;;;;;;6.17;4.40;;;21.40;1.00;;;;;;5047650;28;20982;-73
2023/09/05 01:01:37;;;;;;;6.43;4.20;;;21.30;1.00;;;;;;5047062;28;20436;-73
2023/09/05 01:04:03;;;;;;;5.90;4.27;;;21.30;1.00;;;;;;5048219;28;20212;-74
2023/09/05 01:06:40;;;;;;;8.47;4.80;;;21.30;1.00;;;;;;5046445;28;20450;-75
2023/09/05 01:09:36;;;;;;;6.10;4.30;;;21.20;1.00;;;;;;5048080;28;20258;-74
2023/09/05 01:12:04;;;;;;;6.20;4.43;;;21.20;1.00;;;;;;5046855;28;20462;-73
2023/09/05 01:14:29;;;;;;;6.70;4.57;;;21.20;1.00;;;;;;5046635;28;20956;-73
2023/09/05 01:17:01;;;;;;;5.90;4.37;;;21.10;1.00;;;;;;5047513;28;20531;-74
2023/09/05 01:19:28;;;;;;;6.20;4.27;;;21.10;1.00;;;;;;5046728;28;20650;-74
2023/09/05 01:22:15;;;;;;;7.90;4.30;;;21.20;1.00;;;;;;5046192;28;20445;-74
2023/09/05 01:24:42;;;;;;;5.63;4.30;;;21.10;1.00;;;;;;5048520;28;20446;-73
2023/09/05 01:27:09;;;;;;;6.03;4.20;;;21.10;1.00;;;;;;5047637;28;20447;-73
2023/09/05 01:29:35;;;;;;;5.80;4.43;;;21.10;1.00;;;;;;5047630;28;20533;-73
2023/09/05 01:32:05;;;;;;;7.60;4.30;;;21.10;1.00;;;;;;5047369;28;20836;-73
2023/09/05 01:34:31;;;;;;;9.00;4.43;;;21.10;1.00;;;;;;5048005;28;20797;-73
2023/09/05 01:36:57;;;;;;;5.13;3.97;;;21.10;1.00;;;;;;5046905;28;20439;-74
2023/09/05 01:39:23;;;;;;;5.83;4.47;;;21.10;1.00;;;;;;5047939;28;20191;-73
2023/09/05 01:41:49;;;;;;;6.10;4.10;;;21.10;1.00;;;;;;5048554;28;20533;-74
2023/09/05 01:44:15;;;;;;;7.23;4.50;;;21.00;1.00;;;;;;5046416;28;20204;-73
2023/09/05 01:46:41;;;;;;;5.60;4.20;;;21.00;1.00;;;;;;5047497;28;20500;-74
2023/09/05 01:49:06;;;;;;;5.40;4.00;;;21.30;1.00;;;;;;5047122;28;20552;-74
2023/09/05 01:51:32;;;;;;;9.00;3.97;;;21.00;1.00;;;;;;5047580;28;20189;-74
2023/09/05 01:53:58;;;;;;;6.90;4.30;;;21.00;1.00;;;;;;5047372;28;20205;-74
2023/09/05 01:56:23;;;;;;;5.80;4.50;;;20.90;1.00;;;;;;5047816;28;20185;-73
2023/09/05 01:58:49;;;;;;;6.63;4.27;;;21.00;1.00;;;;;;5046216;28;20260;-74
2023/09/05 02:01:14;;;;;;;6.27;4.60;;;20.90;1.00;;;;;;5048400;28;20567;-74
2023/09/05 02:03:40;;;;;;;6.47;4.17;;;20.80;1.00;;;;;;5043643;28;20283;-73
2023/09/05 02:06:05;;;;;;;5.50;4.20;;;20.80;1.00;;;;;;5051539;28;20173;-74
2023/09/05 02:08:33;;;;;;;8.67;4.50;;;20.80;1.00;;;;;;5050885;28;20679;-73
2023/09/05 02:10:59;;;;;;;5.93;4.03;;;20.80;1.00;;;;;;5051112;28;20184;-74
2023/09/05 02:13:24;;;;;;;5.17;3.93;;;20.80;1.00;;;;;;5050901;28;20992;-74
2023/09/05 02:15:50;;;;;;;7.20;4.37;;;20.90;1.00;;;;;;5051656;28;20673;-74
2023/09/05 02:18:15;;;;;;;6.20;4.10;;;20.70;1.00;;;;;;5051825;28;20192;-74
2023/09/05 02:20:41;;;;;;;6.47;4.37;;;20.70;1.00;;;;;;5047723;28;20208;-74
2023/09/05 02:23:07;;;;;;;5.17;3.97;;;20.70;1.00;;;;;;5051600;28;20208;-74
2023/09/05 02:25:33;;;;;;;5.50;4.07;;;20.80;1.00;;;;;;5051391;28;20196;-74
2023/09/05 02:27:59;;;;;;;6.43;3.73;;;20.70;1.00;;;;;;5049292;28;20478;-73
2023/09/05 02:30:25;;;;;;;5.40;4.00;;;20.70;1.00;;;;;;5048546;28;20192;-73
2023/09/05 02:32:51;;;;;;;5.37;3.63;;;;;;;;;;5049677;28;20212;-73
2023/09/05 02:35:20;;;;;;;5.97;4.23;;;20.60;1.00;;;;;;5049247;28;20526;-73
2023/09/05 02:37:49;;;;;;;5.43;3.70;;;20.60;1.00;;;;;;5034471;28;20439;-73
2023/09/05 02:40:14;;;;;;;5.83;4.33;;;20.60;1.00;;;;;;5051482;28;20430;-74
2023/09/05 02:42:40;;;;;;;6.10;4.13;;;20.60;1.00;;;;;;5050668;28;20802;-74
2023/09/05 02:45:06;;;;;;;6.63;4.07;;;20.60;1.00;;;;;;5051128;28;20190;-74
2023/09/05 02:47:31;;;;;;;5.60;3.73;;;20.60;1.00;;;;;;5050847;28;20192;-73
2023/09/05 02:49:57;;;;;;;5.93;4.17;;;20.60;1.00;;;;;;5049517;28;20204;-73
2023/09/05 02:52:24;;;;;;;5.50;3.80;;;;;;;;;;5050978;28;20216;-74
2023/09/05 02:54:50;;;;;;;6.43;4.07;;;20.60;1.00;;;;;;5049521;28;20631;-74
2023/09/05 02:57:16;;;;;;;7.10;3.90;;;20.60;1.00;;;;;;5051427;28;20462;-73
2023/09/05 02:59:41;;;;;;;7.90;3.77;;;20.50;1.00;;;;;;5049476;28;20200;-73
2023/09/05 03:02:07;;;;;;;7.30;4.10;;;20.50;1.00;;;;;;5050926;28;20707;-74
2023/09/05 03:04:32;;;;;;;5.50;3.90;;;20.50;1.00;;;;;;5050683;28;20199;-74
2023/09/05 03:07:02;;;;;;;7.90;3.73;;;20.50;1.00;;;;;;5051444;28;20698;-74
2023/09/05 03:09:28;;;;;;;5.53;3.63;;;20.50;1.00;;;;;;5049811;28;20211;-74
2023/09/05 03:11:54;;;;;;;4.70;3.60;;;18.40;1.00;;;;;;5050655;28;20454;-73
2023/09/05 03:14:20;;;;;;;7.30;4.17;;;20.40;1.00;;;;;;5049224;28;20427;-73
2023/09/05 03:16:46;;;;;;;5.80;3.70;;;20.40;1.00;;;;;;5049278;28;20234;-74
2023/09/05 03:19:11;;;;;;;7.03;3.70;;;20.40;1.00;;;;;;5047810;28;20181;-74
2023/09/05 03:21:40;;;;;;;6.07;4.30;;;20.40;1.00;;;;;;5049369;28;20267;-73
2023/09/05 03:24:06;;;;;;;4.67;3.10;;;20.50;1.00;;;;;;5049214;28;20208;-74
2023/09/05 03:26:31;;;;;;;5.90;4.00;;;20.40;1.00;;;;;;5049716;28;20442;-74
2023/09/05 03:28:59;;;;;;;6.40;3.53;;;20.30;1.00;;;;;;5050636;28;20200;-74
2023/09/05 03:31:28;;;;;;;5.13;3.47;;;20.30;1.00;;;;;;5050145;28;20185;-73
2023/09/05 03:33:54;;;;;;;6.97;3.90;;;20.30;1.00;;;;;;5049306;28;20451;-74
2023/09/05 03:36:21;;;;;;;6.03;4.20;;;20.30;1.00;;;;;;5048958;28;20439;-74
2023/09/05 03:38:47;;;;;;;5.20;3.50;;;20.30;1.00;;;;;;5049692;28;20447;-73
2023/09/05 03:41:13;;;;;;;5.20;3.63;;;20.30;1.00;;;;;;5048713;28;20478;-75
2023/09/05 03:43:38;;;;;;;5.60;3.83;;;20.20;1.00;;;;;;5049563;28;20209;-74
2023/09/05 03:46:04;;;;;;;5.70;3.70;;;20.20;1.00;;;;;;5049733;28;20177;-74
2023/09/05 03:48:29;;;;;;;4.50;3.60;;;20.20;1.00;;;;;;5049455;28;20220;-74
2023/09/05 03:50:55;;;;;;;6.00;3.50;;;20.20;1.00;;;;;;5048804;28;20191;-74
2023/09/05 03:53:20;;;;;;;5.90;3.70;;;20.20;1.00;;;;;;5047409;28;20254;-73
2023/09/05 03:55:47;;;;;;;6.40;3.90;;;20.20;1.00;;;;;;5049724;28;20189;-73
2023/09/05 03:58:13;;;;;;;5.67;4.00;;;20.20;1.00;;;;;;5049654;28;20230;-74
2023/09/05 04:00:39;;;;;;;6.03;3.90;;;20.20;1.00;;;;;;5048245;28;20439;-74
2023/09/05 04:03:04;;;;;;;6.23;4.03;;;20.10;1.00;;;;;;5047092;28;20217;-72
2023/09/05 04:05:32;;;;;;;6.70;3.80;;;20.10;1.00;;;;;;5049226;28;20264;-74
2023/09/05 04:07:58;;;;;;;5.30;4.20;;;20.10;1.00;;;;;;5049386;28;20184;-73
2023/09/05 04:10:24;;;;;;;5.40;3.60;;;;;;;;;;5049262;28;20519;-74
2023/09/05 04:12:50;;;;;;;6.50;4.20;;;20.10;1.00;;;;;;5048357;28;20200;-73
2023/09/05 04:15:20;;;;;;;6.07;3.60;;;20.10;1.00;;;;;;5048970;28;20450;-74
2023/09/05 04:17:46;;;;;;;5.10;3.57;;;20.10;1.00;;;;;;5064659;28;20493;-73
2023/09/05 04:20:15;;;;;;;8.17;3.93;;;20.40;1.00;;;;;;5048860;28;20968;-74
2023/09/05 04:22:40;;;;;;;9.47;4.37;;;21.20;1.00;;;;;;5047906;28;20463;-73
2023/09/05 04:25:07;;;;;;;5.23;3.90;;;20.00;1.00;;;;;;5048089;28;20518;-74
2023/09/05 04:27:32;;;;;;;5.97;3.70;;;19.90;1.00;;;;;;5048083;28;20204;-73
2023/09/05 04:29:58;;;;;;;5.90;3.70;;;20.00;1.00;;;;;;5049477;28;20466;-74
2023/09/05 04:32:32;;;;;;;6.30;3.90;;;20.00;1.00;;;;;;5047399;28;20236;-74
2023/09/05 04:35:03;;;;;;;9.20;4.20;;;20.00;1.00;;;;;;5047635;28;20742;-74
2023/09/05 04:37:29;;;;;;;6.30;4.23;;;20.00;1.00;;;;;;5049057;28;20431;-73
2023/09/05 04:39:55;;;;;;;7.87;3.80;;;20.00;1.00;;;;;;5049021;28;20949;-73
2023/09/05 04:42:21;;;;;;;6.80;4.13;;;20.00;1.00;;;;;;5046610;28;20216;-73
2023/09/05 04:44:47;;;;;;;6.63;4.30;;;20.00;1.00;;;;;;5059025;28;20185;-74
2023/09/05 04:47:27;;;;;;;5.60;3.77;;;19.90;1.00;;;;;;5048076;28;20438;-73
2023/09/05 04:49:58;;;;;;;6.37;3.90;;;20.00;1.00;;;;;;5046721;28;20196;-74
2023/09/05 04:52:26;;;;;;;5.90;3.97;;;20.00;1.00;;;;;;5044202;28;20447;-73
2023/09/05 04:54:53;;;;;;;7.73;4.17;;;19.90;1.00;;;;;;5046028;28;20439;-73
2023/09/05 04:57:19;;;;;;;8.13;3.90;;;;;;;;;;5063390;28;20442;-73
2023/09/05 04:59:47;;;;;;;5.20;3.60;;;19.90;1.00;;;;;;5045639;28;20459;-74
2023/09/05 05:02:13;;;;;;;5.77;3.90;;;19.90;1.00;;;;;;5047490;28;20283;-73
2023/09/05 05:04:40;;;;;;;5.07;3.63;;;19.90;1.00;;;;;;5047991;28;20775;-73
2023/09/05 05:07:06;;;;;;;5.60;3.70;;;19.90;1.00;;;;;;5049256;28;20457;-74
2023/09/05 05:09:32;;;;;;;5.80;3.83;;;19.90;1.00;;;;;;5046727;28;20502;-73
2023/09/05 05:11:59;;;;;;;6.57;3.73;;;20.00;1.00;;;;;;5045824;28;20435;-73
2023/09/05 05:14:24;;;;;;;5.30;3.90;;;19.90;1.00;;;;;;5050082;28;20271;-73
2023/09/05 05:16:50;;;;;;;5.43;3.83;;;20.00;1.00;;;;;;5046246;28;20534;-72
2023/09/05 05:19:15;;;;;;;6.07;4.30;;;19.90;1.00;;;;;;5048330;28;20201;-74
2023/09/05 05:21:41;;;;;;;7.73;4.50;;;20.00;1.00;;;;;;5044631;28;20188;-74
2023/09/05 05:24:07;;;;;;;5.90;4.30;;;20.00;1.00;;;;;;5047412;28;20238;-73
2023/09/05 05:26:32;;;;;;;7.00;4.00;;;20.00;1.00;;;;;;5049223;28;20192;-74
2023/09/05 05:28:58;;;;;;;5.60;3.93;;;20.00;1.00;;;;;;5047291;28;20485;-74
2023/09/05 05:31:24;;;;;;;6.90;3.70;;;20.00;1.00;;;;;;5050141;28;20212;-73
2023/09/05 05:33:49;;;;;;;5.80;4.07;;;20.00;1.00;;;;;;5048020;28;20204;-74
2023/09/05 05:36:15;;;;;;;7.70;3.87;;;20.10;1.00;;;;;;5056745;28;20177;-74
2023/09/05 05:38:41;;;;;;;9.90;4.33;;;20.10;1.00;;;;;;5052378;28;20181;-74
2023/09/05 05:41:10;;;;;;;7.50;4.60;;;20.10;1.00;;;;;;5053404;28;20767;-73
2023/09/05 05:43:36;;;;;;;6.07;4.00;;;20.10;1.00;;;;;;5052293;28;20247;-73
2023/09/05 05:46:02;;;;;;;10.63;4.13;;;20.10;1.00;;;;;;5053182;28;20427;-74
2023/09/05 05:48:27;;;;;;;7.07;4.30;;;20.20;1.00;;;;;;5055100;28;20240;-74
2023/09/05 05:50:53;;;;;;;5.53;4.00;;;20.30;1.00;;;;;;5052606;28;20189;-74
2023/09/05 05:53:20;;;;;;;6.97;3.87;;;20.40;1.00;;;;;;5052247;28;20709;-73
2023/09/05 05:55:46;;;;;;;4.50;3.50;;;20.70;1.00;;;;;;5050745;28;20675;-73
2023/09/05 05:58:13;;;;;;;6.57;4.30;;;;;;;;;;5052216;28;20430;-74
2023/09/05 06:00:44;;;;;;;4.80;3.60;;;20.80;1.00;;;;;;5048218;28;20186;-74
2023/09/05 06:03:11;;;;;;;6.33;3.60;;;20.90;1.00;;;;;;5051542;28;20450;-74
2023/09/05 06:05:37;;;;;;;5.47;4.00;;;21.00;1.00;;;;;;5051146;28;20438;-74
2023/09/05 06:08:02;;;;;;;5.50;3.80;;;21.10;1.00;;;;;;5048260;28;20442;-73
2023/09/05 06:10:28;;;;;;;6.00;4.13;;;21.20;1.00;;;;;;5049765;28;20300;-73
2023/09/05 06:12:54;;;;;;;9.03;4.37;;;21.30;1.00;;;;;;5049359;28;20697;-73
2023/09/05 06:15:19;;;;;;;5.30;3.70;;;21.30;1.00;;;;;;5050776;28;20810;-73
2023/09/05 06:17:45;;;;;;;5.67;4.07;;;21.40;1.00;;;;;;5050128;28;20199;-74
2023/09/05 06:20:11;;;;;;;6.20;3.67;;;21.50;1.00;;;;;;5048509;28;20230;-73
2023/09/05 06:22:39;;;;;;;4.77;3.43;;;21.50;1.00;;;;;;5048948;28;20273;-74
2023/09/05 06:25:05;;;;;;;5.80;3.87;;;21.50;1.00;;;;;;5048229;28;20446;-74
2023/09/05 06:27:31;;;;;;;5.30;3.50;;;21.60;1.00;;;;;;5049103;28;21109;-73
2023/09/05 06:29:57;;;;;;;5.27;3.80;;;21.70;1.00;;;;;;5048134;28;20481;-73
2023/09/05 06:32:22;;;;;;;6.43;4.60;;;23.20;1.00;;;;;;5049572;28;20454;-73
2023/09/05 06:34:48;;;;;;;5.00;3.63;;;22.00;1.00;;;;;;5049884;28;20278;-73
2023/09/05 06:37:14;;;;;;;4.57;3.43;;;22.10;1.00;;;;;;5051170;28;20230;-72
2023/09/05 06:39:39;;;;;;;7.90;3.80;;;22.30;1.00;;;;;;5050523;28;20242;-74
2023/09/05 06:42:08;;;;;;;7.50;4.60;;;23.00;1.00;;;;;;5047736;28;20189;-73
2023/09/05 06:44:33;;;;;;;5.30;3.80;;;23.20;1.00;;;;;;5051061;28;20173;-75
2023/09/05 06:46:59;;;;;;;4.57;3.40;;;23.40;1.00;;;;;;5051006;28;20988;-73
2023/09/05 06:49:25;;;;;;;5.40;3.73;;;23.70;1.00;;;;;;5062930;28;20204;-73
2023/09/05 06:51:50;;;;;;;5.53;3.80;;;24.00;1.00;;;;;;5050406;28;20590;-74
2023/09/05 06:54:16;;;;;;;5.87;4.10;;;24.00;1.00;;;;;;5049759;28;20211;-74
2023/09/05 06:56:41;;;;;;;6.67;3.60;;;23.70;1.00;;;;;;5065217;28;20184;-73
2023/09/05 06:59:17;;;;;;;5.00;3.40;;;23.40;1.00;;;;;;5044803;28;20841;-72
2023/09/05 07:01:46;;;;;;;6.07;3.80;;;23.30;1.00;;;;;;5049210;28;20191;-73
2023/09/05 07:04:13;;;;;;;4.80;3.37;;;23.10;1.00;;;;;;5049624;28;20467;-73
2023/09/05 07:06:39;;;;;;;4.77;3.57;;;23.20;1.00;;;;;;5050558;28;21013;-72
2023/09/05 07:09:06;;;;;;;7.20;3.93;;;23.80;1.00;;;;;;5049577;28;20469;-73
2023/09/05 07:11:31;;;;;;;5.77;3.67;;;24.40;1.00;;;;;;5049968;28;20443;-73
2023/09/05 07:13:57;;;;;;;6.83;3.40;;;24.60;1.00;;;;;;5049590;28;21010;-73
2023/09/05 07:16:22;;;;;;;4.90;3.53;;;24.40;1.00;;;;;;5047787;28;20192;-73
2023/09/05 07:18:48;;;;;;;8.13;3.87;;;24.10;1.00;;;;;;5047805;28;20275;-73
2023/09/05 07:21:14;;;;;;;9.60;3.90;;;24.00;1.00;;;;;;5049092;28;20223;-73
2023/09/05 07:23:40;;;;;;;6.27;4.07;;;24.00;1.00;;;;;;5039823;28;20207;-73
2023/09/05 07:26:06;;;;;;;6.23;3.60;;;24.20;1.00;;;;;;5046846;28;20671;-73
2023/09/05 07:28:32;;;;;;;5.17;3.60;;;25.00;1.00;;;;;;5049655;28;20310;-73
2023/09/05 07:30:58;;;;;;;5.93;3.40;;;25.90;1.00;;;;;;5046810;28;20518;-73
2023/09/05 07:33:23;;;;;;;7.47;3.60;;;26.60;1.00;;;;;;5048740;28;20323;-74
2023/09/05 07:35:49;;;;;;;5.67;3.40;;;27.40;1.00;;;;;;5048546;28;20180;-75
2023/09/05 07:38:17;;;;;;;5.82;3.92;;;28.10;1.00;;;;;;5048515;28;20192;-74
2023/09/05 07:40:43;;;;;;;7.35;3.30;;;28.60;1.00;;;;;;5047818;28;20728;-74
2023/09/05 07:43:08;;;;;;;6.28;3.50;;;29.00;1.00;;;;;;5047293;28;20212;-74
2023/09/05 07:45:35;;;;;;;6.10;3.40;;;29.30;1.00;;;;;;5048666;28;20180;-75
2023/09/05 07:48:01;;;;;;;5.18;3.30;;;29.90;1.00;;;;;;5048099;28;20597;-75
2023/09/05 07:50:27;;;;;;;6.05;3.40;;;30.20;1.00;;;;;;5049152;28;20598;-75
2023/09/05 07:52:53;;;;;;;6.93;3.40;;;30.30;1.00;;;;;;5050433;28;20204;-75
2023/09/05 07:55:19;;;;;;;6.47;3.85;;;30.30;1.00;;;;;;5049986;28;20596;-76
2023/09/05 07:57:44;;;;;;;4.75;3.20;;;30.40;1.00;;;;;;5051054;28;20188;-75
2023/09/05 08:00:11;;;;;;;4.97;3.47;;;30.00;1.00;;;;;;5046414;28;20188;-76
2023/09/05 08:02:37;;;;;;;4.85;3.47;;;29.90;1.00;;;;;;5049517;28;20266;-76
2023/09/05 08:05:06;;;;;;;6.25;3.78;;;30.10;1.00;;;;;;5049677;28;20181;-75
2023/09/05 08:07:32;;;;;;;5.28;3.50;;;30.70;1.00;;;;;;5051395;28;20229;-76
2023/09/05 08:10:00;;;;;;;4.60;3.55;;;31.20;1.00;;;;;;5051353;28;20200;-75
2023/09/05 08:12:25;;;;;;;5.03;3.28;;;32.00;1.00;;;;;;5051284;28;20193;-76
2023/09/05 08:14:51;;;;;;;5.28;3.65;;;32.20;1.00;;;;;;5050894;28;20211;-75
2023/09/05 08:17:17;;;;;;;8.23;3.13;;;32.70;1.00;;;;;;5047585;28;20184;-75
2023/09/05 08:19:44;;;;;;;4.53;3.10;;;33.20;1.00;;;;;;5049112;28;20222;-76
2023/09/05 08:22:12;;;;;;;7.43;3.40;;;33.10;1.00;;;;;;5047988;28;20569;-76
2023/09/05 08:24:37;;;;;;;9.45;3.38;;;32.90;1.00;;;;;;5049848;28;20260;-75
2023/09/05 08:27:04;;;;;;;3.63;2.80;;;33.30;1.00;;;;;;5050494;28;20648;-76
2023/09/05 08:29:30;;;;;;;8.18;3.35;;;33.90;1.00;;;;;;5048435;28;20227;-75
2023/09/05 08:31:58;;;;;;;5.85;3.17;;;33.70;1.00;;;;;;5050380;28;20535;-76
2023/09/05 08:34:23;;;;;;;5.15;3.30;;;33.70;1.00;;;;;;5051241;28;20180;-76
2023/09/05 08:36:49;;;;;;;8.55;3.10;;;33.80;1.00;;;;;;5051388;28;20189;-75
2023/09/05 08:39:15;;;;;;;5.28;3.30;;;34.10;1.00;;;;;;5051136;28;20181;-76
2023/09/05 08:41:40;;;;;;;6.55;3.20;;;34.40;1.00;;;;;;5050651;28;20746;-77
2023/09/05 08:44:06;;;;;;;8.13;3.20;;;35.20;1.00;;;;;;5049599;28;20223;-76
2023/09/05 08:46:32;;;;;;;5.13;3.40;;;35.30;1.00;;;;;;5049978;28;20180;-76
2023/09/05 08:48:57;;;;;;;4.93;3.20;;;35.20;1.00;;;;;;5049118;28;20200;-76
2023/09/05 08:51:32;;;;;;;6.15;3.10;;;35.60;1.00;;;;;;5050629;28;20650;-77
2023/09/05 08:54:00;;;;;;;4.57;3.08;;;35.20;1.00;;;;;;5048525;28;20338;-76
2023/09/05 08:56:26;;;;;;;8.25;2.90;;;35.40;1.00;;;;;;5050500;28;20184;-76
2023/09/05 08:58:52;;;;;;;5.30;3.00;;;35.70;1.00;;;;;;5044760;28;21080;-77
2023/09/05 09:01:19;;;;;;;3.97;2.97;;;35.70;1.00;;;;;;5047542;28;20308;-76
2023/09/05 09:03:45;;;;;;;6.07;2.90;;;36.10;1.00;;;;;;5048352;28;20200;-77
2023/09/05 09:06:10;;;;;;;4.53;3.17;;;36.50;1.00;;;;;;5048924;28;20185;-77
2023/09/05 09:08:45;;;;;;;4.85;3.30;;;37.00;1.00;;;;;;5047598;28;20208;-77
2023/09/05 09:11:11;;;;;;;6.18;3.72;;;36.20;1.00;;;;;;5047508;28;20172;-76
2023/09/05 09:13:38;;;;;;;4.10;3.00;;;36.40;1.00;;;;;;5048868;28;20283;-76
2023/09/05 09:16:05;;;;;;;5.90;3.00;;;36.00;1.00;;;;;;5047432;28;20176;-76
2023/09/05 09:18:31;;;;;;;4.68;2.75;;;36.40;1.00;;;;;;5048857;28;20183;-77
2023/09/05 09:21:01;;;;;;;4.32;3.03;;;36.70;1.00;;;;;;5058005;28;20188;-76
2023/09/05 09:23:28;;;;;;;5.45;3.05;;;37.40;1.00;;;;;;5047250;28;20210;-75
2023/09/05 09:25:55;;;;;;;4.68;2.83;;;37.40;1.00;;;;;;5046808;28;20181;-76
2023/09/05 09:28:22;;;;;;;5.65;3.22;;;37.40;1.00;;;;;;5047160;28;20172;-76
2023/09/05 09:30:55;;;;;;;5.53;2.83;;;37.70;1.00;;;;;;5045648;28;20184;-76
2023/09/05 09:33:22;;;;;;;5.70;3.13;;;38.00;1.00;;;;;;5047826;28;20204;-77
2023/09/05 09:36:00;;;;;;;7.00;2.80;;;38.20;1.00;;;;;;5045626;28;20200;-77
2023/09/05 09:38:26;;;;;;;6.07;3.40;;;38.70;1.00;;;;;;5039410;28;20302;-77
2023/09/05 09:40:52;;;;;;;4.60;3.10;;;39.40;1.00;;;;;;5046395;28;20271;-76
2023/09/05 09:43:17;;;;;;;4.57;3.00;;;39.90;1.00;;;;;;5062324;28;20217;-76
2023/09/05 09:45:43;;;;;;;6.97;2.72;;;39.70;1.00;;;;;;5046665;28;20712;-76
2023/09/05 09:48:12;;;;;;;9.40;3.08;;;39.90;1.00;;;;;;5048056;28;20220;-76
2023/09/05 09:50:39;;;;;;;7.47;2.90;;;40.30;1.00;;;;;;5047522;28;20220;-77
2023/09/05 09:53:08;;;;;;;5.65;2.60;;;40.50;1.00;;;;;;5046930;28;20239;-76
2023/09/05 09:55:35;;;;;;;3.55;2.83;;;40.00;1.00;;;;;;5050045;28;20191;-76
2023/09/05 09:58:08;;;;;;;4.82;2.97;;;39.60;1.00;;;;;;5047294;28;20184;-75
2023/09/05 10:00:35;;;;;;;7.40;3.25;;;39.80;1.00;;;;;;5042913;28;20184;-76
2023/09/05 10:03:04;;;;;;;5.72;2.92;;;40.40;1.00;;;;;;5048672;28;20200;-75
2023/09/05 10:05:30;;;;;;;5.60;2.80;;;40.10;1.00;;;;;;5048144;28;20183;-76
2023/09/05 10:07:57;;;;;;;5.68;3.08;;;40.10;1.00;;;;;;5046618;28;20473;-76
2023/09/05 10:10:24;;;;;;;5.57;3.05;;;40.00;1.00;;;;;;5047665;28;20714;-77
2023/09/05 10:12:51;;;;;;;4.32;2.60;;;40.60;1.00;;;;;;5060739;28;20204;-76
2023/09/05 10:15:18;;;;;;;5.03;3.03;;;40.60;1.00;;;;;;5044979;28;20193;-77
2023/09/05 10:17:45;;;;;;;3.30;2.60;;;40.20;1.00;;;;;;5048139;28;20173;-76
2023/09/05 10:20:14;;;;;;;6.10;2.70;;;40.10;1.00;;;;;;5047201;28;20200;-76
2023/09/05 10:22:43;;;;;;;9.05;2.83;;;40.30;1.00;;;;;;5043137;28;20207;-76
2023/09/05 10:25:11;;;;;;;4.43;2.53;;;40.90;1.00;;;;;;5051816;28;20667;-76
2023/09/05 10:27:36;;;;;;;4.70;2.53;;;41.00;1.00;;;;;;5052027;28;20438;-76
2023/09/05 10:30:02;;;;;;;5.38;2.97;;;41.40;1.00;;;;;;5051692;28;20226;-77
2023/09/05 10:32:29;;;;;;;10.05;2.83;;;42.30;1.00;;;;;;5049138;28;20242;-76
2023/09/05 10:34:58;;;;;;;4.63;2.70;;;42.90;1.00;;;;;;5049856;28;20670;-77
2023/09/05 10:37:48;;;;;;;4.00;2.78;;;43.20;1.00;;;;;;5051328;28;20663;-77
2023/09/05 10:40:15;;;;;;;4.15;2.75;;;;;;;;;;5043748;28;20742;-76
2023/09/05 10:42:42;;;;;;;4.05;2.78;;;43.00;1.00;;;;;;5052435;28;20204;-77
2023/09/05 10:45:37;;;;;;;3.92;2.75;;;42.60;1.00;;;;;;5049514;28;20196;-77
2023/09/05 10:48:17;;;;;;;4.20;2.50;;;42.50;1.00;;;;;;5032426;28;20203;-77
2023/09/05 10:51:06;;;;;;;4.65;2.60;;;42.70;1.00;;;;;;5048277;28;20550;-77
2023/09/05 10:53:44;;;;;;;5.10;2.60;;;42.20;1.00;;;;;;5048918;28;20674;-77
2023/09/05 10:56:39;;;;;;;3.95;2.40;;;41.80;1.00;;;;;;5051517;28;20786;-77
2023/09/05 10:59:08;;;;;;;3.67;2.50;;;42.30;1.00;;;;;;5045660;28;20203;-77
2023/09/05 11:01:33;;;;;;;4.13;2.20;;;42.50;1.00;;;;;;5046647;28;20271;-77
2023/09/05 11:04:05;;;;;;;4.60;2.80;;;42.80;1.00;;;;;;5048465;28;20355;-75
2023/09/05 11:06:31;;;;;;;4.22;2.53;;;;;;;;;;5050690;28;20184;-76
2023/09/05 11:09:04;;;;;;;5.55;2.60;;;42.60;1.00;;;;;;5049734;28;20232;-77
2023/09/05 11:11:31;;;;;;;6.18;2.50;;;42.90;1.00;;;;;;5050428;28;20190;-77
2023/09/05 11:13:57;;;;;;;5.57;2.13;;;43.20;1.00;;;;;;5049781;28;20204;-77
2023/09/05 11:16:23;;;;;;;3.90;2.50;;;43.80;1.00;;;;;;5048205;28;20176;-77
2023/09/05 11:18:55;;;;;;;5.07;2.92;;;43.70;1.00;;;;;;5050466;28;20180;-77
2023/09/05 11:21:22;;;;;;;3.72;2.53;;;43.30;1.00;;;;;;5048507;28;20423;-77
2023/09/05 11:23:52;;;;;;;5.00;2.40;;;43.90;1.00;;;;;;5051607;28;20196;-77
2023/09/05 11:26:18;;;;;;;8.40;2.88;;;44.80;1.00;;;;;;5049742;28;20191;-77
2023/09/05 11:28:48;;;;;;;3.95;2.60;;;44.20;1.00;;;;;;5049869;28;20207;-77
2023/09/05 11:31:15;;;;;;;3.83;2.63;;;44.20;1.00;;;;;;5046711;28;20211;-76
2023/09/05 11:33:41;;;;;;;4.78;2.35;;;44.60;1.00;;;;;;5048269;28;20286;-77
2023/09/05 11:36:08;;;;;;;3.90;2.40;;;45.20;1.00;;;;;;5049200;28;20279;-77
2023/09/05 11:38:50;;;;;;;2.90;2.30;;;45.80;1.00;;;;;;5049194;28;20555;-77
2023/09/05 11:41:18;;;;;;;5.47;2.83;;;46.30;1.00;;;;;;5047842;28;20726;-77
2023/09/05 11:43:49;;;;;;;4.70;2.22;;;46.80;1.00;;;;;;5047222;28;20208;-78
2023/09/05 11:46:16;;;;;;;3.00;2.20;;;46.50;1.00;;;;;;5046826;28;20282;-77
2023/09/05 11:48:43;;;;;;;3.55;2.38;;;46.50;1.00;;;;;;5048614;28;20269;-78
2023/09/05 11:51:10;;;;;;;3.60;2.42;;;46.60;1.00;;;;;;5047020;28;20180;-77
2023/09/05 11:53:37;;;;;;;6.78;2.35;;;46.80;1.00;;;;;;5049512;28;20689;-76
2023/09/05 11:56:03;;;;;;;7.93;2.55;;;46.70;1.00;;;;;;5049422;28;20478;-76
2023/09/05 11:58:30;;;;;;;5.25;2.30;;;45.60;1.00;;;;;;5048179;28;20531;-77
2023/09/05 12:00:57;;;;;;;3.78;2.17;;;45.30;1.00;;;;;;5050790;28;20184;-76
2023/09/05 12:03:23;;;;;;;8.23;2.53;;;45.10;1.00;;;;;;5047751;28;20214;-77
2023/09/05 12:05:51;;;;;;;6.03;2.75;;;45.00;1.00;;;;;;5050222;28;20168;-76
2023/09/05 12:08:20;;;;;;;4.30;2.30;;;44.60;1.00;;;;;;5045916;28;20195;-76
2023/09/05 12:10:51;;;;;;;5.78;2.50;;;44.50;1.00;;;;;;5047157;28;20176;-77
2023/09/05 12:13:17;;;;;;;7.13;2.55;;;45.00;1.00;;;;;;5062711;28;20224;-77
2023/09/05 12:15:46;;;;;;;5.05;2.63;;;44.90;1.00;;;;;;5049809;28;20204;-77
2023/09/05 12:18:19;;;;;;;4.18;2.55;;;44.80;1.00;;;;;;5048972;28;20238;-77
2023/09/05 12:20:55;;;;;;;3.55;2.47;;;45.30;1.00;;;;;;5058998;28;20238;-77
2023/09/05 12:23:24;;;;;;;5.47;2.60;;;46.00;1.00;;;;;;5047743;28;20235;-77
2023/09/05 12:25:52;;;;;;;5.10;2.33;;;45.80;1.00;;;;;;5049275;28;20180;-77
2023/09/05 12:28:20;;;;;;;4.50;2.30;;;46.10;1.00;;;;;;5049185;28;20173;-77
2023/09/05 12:30:47;;;;;;;8.07;2.22;;;45.80;1.00;;;;;;5046407;28;20473;-77
2023/09/05 12:33:13;;;;;;;3.13;2.10;;;45.60;1.00;;;;;;5044976;28;20204;-77
2023/09/05 12:35:39;;;;;;;3.08;2.10;;;46.00;1.00;;;;;;5047684;28;20202;-78
2023/09/05 12:38:04;;;;;;;3.63;1.98;;;45.70;1.00;;;;;;5047774;28;20544;-77
2023/09/05 12:40:33;;;;;;;9.52;2.30;;;46.10;1.00;;;;;;5046797;28;20177;-76
2023/09/05 12:43:00;;;;;;;5.13;2.30;;;46.50;1.00;;;;;;5047240;28;20599;-77
2023/09/05 12:45:26;;;;;;;6.30;2.72;;;46.50;1.00;;;;;;5044786;28;20193;-76
2023/09/05 12:47:51;;;;;;;3.55;2.00;;;46.60;1.00;;;;;;5045556;28;20682;-77
2023/09/05 12:50:29;;;;;;;3.97;2.05;;;46.50;1.00;;;;;;5062806;28;20666;-76
2023/09/05 12:53:01;;;;;;;4.32;2.08;;;46.50;1.00;;;;;;5043358;28;20287;-77
2023/09/05 12:55:31;;;;;;;2.83;1.90;;;46.40;1.00;;;;;;5062241;28;20180;-77
2023/09/05 12:57:57;;;;;;;3.50;1.90;;;46.90;1.00;;;;;;5048152;28;20404;-77
2023/09/05 13:00:23;;;;;;;5.28;2.00;;;47.40;1.00;;;;;;5045834;28;20286;-77